createdAt,value
2019-02-25T00:00:12.603Z,-0.49
2019-02-25T00:02:43.991Z,-0.51
2019-02-25T00:05:13.772Z,-0.56
2019-02-25T00:07:43.603Z,-0.67
2019-02-25T00:10:14.360Z,-0.67
2019-02-25T00:12:44.110Z,-0.76
2019-02-25T00:15:13.875Z,-0.72
2019-02-25T00:17:43.623Z,-0.75
2019-02-25T00:20:14.486Z,-0.79
2019-02-25T00:22:44.170Z,-0.81
2019-02-25T00:25:14.081Z,-0.81
2019-02-25T00:27:43.831Z,-0.86
2019-02-25T00:30:13.666Z,-0.88
2019-02-25T00:32:43.868Z,-0.89
2019-02-25T00:35:13.648Z,-0.89
2019-02-25T00:37:43.512Z,-0.93
2019-02-25T00:40:13.936Z,-0.99
2019-02-25T00:42:44.131Z,-0.96
2019-02-25T00:45:13.905Z,-0.96
2019-02-25T00:47:43.752Z,-0.97
2019-02-25T00:50:13.905Z,-0.97
2019-02-25T00:52:43.712Z,-0.97
2019-02-25T00:55:13.866Z,-0.97
2019-02-25T00:57:45.639Z,-1.15
2019-02-25T01:00:16.301Z,-1.15
2019-02-25T01:02:46.151Z,-1.13
2019-02-25T01:05:16.675Z,-1.08
2019-02-25T01:07:46.740Z,-1.05
2019-02-25T01:10:17.535Z,-0.99
2019-02-25T01:12:47.782Z,-0.84
2019-02-25T01:15:19.015Z,-0.78
2019-02-25T01:17:48.771Z,-0.92
2019-02-25T01:20:19.534Z,-0.92
2019-02-25T01:22:49.487Z,-0.92
2019-02-25T01:25:19.244Z,-0.94
2019-02-25T01:27:49.245Z,-0.97
2019-02-25T01:30:19.869Z,-1.06
2019-02-25T01:32:49.628Z,-1.17
2019-02-25T01:35:19.432Z,-1.17
2019-02-25T01:37:49.200Z,-1.14
2019-02-25T01:40:18.961Z,-1.19
2019-02-25T01:42:48.717Z,-1.23
2019-02-25T01:45:18.524Z,-1.18
2019-02-25T01:47:48.549Z,-1.15
2019-02-25T01:50:18.590Z,-1.15
2019-02-25T01:52:48.282Z,-1.12
2019-02-25T01:55:18.132Z,-1.10
2019-02-25T01:57:49.303Z,-1.14
2019-02-25T02:00:19.118Z,-1.15
2019-02-25T02:02:48.801Z,-1.17
2019-02-25T02:05:19.529Z,-1.26
2019-02-25T02:07:49.266Z,-1.30
2019-02-25T02:10:19.799Z,-1.27
2019-02-25T02:12:49.547Z,-1.27
2019-02-25T02:15:19.379Z,-1.27
2019-02-25T02:17:49.130Z,-1.23
2019-02-25T02:20:19.027Z,-1.31
2019-02-25T02:22:48.766Z,-1.29
2019-02-25T02:25:18.530Z,-1.27
2019-02-25T02:27:48.276Z,-1.28
2019-02-25T02:30:18.774Z,-1.18
2019-02-25T02:32:48.541Z,-1.31
2019-02-25T02:35:18.710Z,-1.31
2019-02-25T02:37:48.490Z,-1.25
2019-02-25T02:40:18.335Z,-1.20
2019-02-25T02:42:50.732Z,-1.22
2019-02-25T02:45:30.290Z,-1.25
2019-02-25T02:48:09.177Z,-1.19
2019-02-25T02:50:38.925Z,-1.19
2019-02-25T02:53:08.718Z,-1.18
2019-02-25T02:55:38.535Z,-1.24
2019-02-25T02:58:08.231Z,-1.38
2019-02-25T03:00:38.001Z,-1.39
2019-02-25T03:03:09.168Z,-1.32
2019-02-25T03:05:38.947Z,-1.31
2019-02-25T03:08:08.644Z,-1.22
2019-02-25T03:10:38.393Z,-1.20
2019-02-25T03:13:08.937Z,-1.26
2019-02-25T03:15:38.679Z,-1.23
2019-02-25T03:18:08.469Z,-1.21
2019-02-25T03:20:38.165Z,-1.25
2019-02-25T03:23:07.920Z,-1.31
2019-02-25T03:25:37.602Z,-1.27
2019-02-25T03:28:07.340Z,-1.29
2019-02-25T03:30:37.038Z,-1.25
2019-02-25T03:33:06.726Z,-1.19
2019-02-25T03:35:36.485Z,-1.22
2019-02-25T03:38:06.264Z,-1.43
2019-02-25T03:40:36.025Z,-1.43
2019-02-25T03:43:06.670Z,-1.37
2019-02-25T03:45:36.453Z,-1.39
2019-02-25T03:48:06.205Z,-1.43
2019-02-25T03:50:36.864Z,-1.43
2019-02-25T03:53:06.607Z,-1.50
2019-02-25T03:55:36.785Z,-1.50
2019-02-25T03:58:06.530Z,-1.49
2019-02-25T04:00:36.665Z,-1.49
2019-02-25T04:03:06.868Z,-1.58
2019-02-25T04:05:36.555Z,-1.60
2019-02-25T04:08:06.332Z,-1.58
2019-02-25T04:10:36.001Z,-1.58
2019-02-25T04:13:06.111Z,-1.49
2019-02-25T04:15:39.589Z,-1.49
2019-02-25T04:18:09.354Z,-1.35
2019-02-25T04:20:39.037Z,-1.20
2019-02-25T04:23:09.066Z,-1.17
2019-02-25T04:25:39.153Z,-1.14
2019-02-25T04:28:09.228Z,-0.87
2019-02-25T04:30:38.979Z,-0.89
2019-02-25T04:33:08.651Z,-1.06
2019-02-25T04:35:38.467Z,-1.06
2019-02-25T04:38:08.114Z,-0.89
2019-02-25T04:40:37.804Z,-0.72
2019-02-25T04:43:08.622Z,-1.03
2019-02-25T04:45:38.702Z,-1.21
2019-02-25T04:48:08.812Z,-1.21
2019-02-25T04:50:39.639Z,-1.03
2019-02-25T04:53:09.340Z,-0.85
2019-02-25T04:55:38.996Z,-0.85
2019-02-25T04:58:09.243Z,-0.75
2019-02-25T05:00:38.968Z,-0.75
2019-02-25T05:03:08.649Z,-0.54
2019-02-25T05:05:38.762Z,-0.54
2019-02-25T05:08:08.740Z,-0.49
2019-02-25T05:10:38.425Z,-0.49
2019-02-25T05:13:08.383Z,-0.50
2019-02-25T05:15:38.181Z,-0.50
2019-02-25T05:18:07.976Z,-0.89
2019-02-25T05:20:37.648Z,-0.89
2019-02-25T05:23:08.299Z,-0.76
2019-02-25T05:25:38.045Z,-0.76
2019-02-25T05:28:07.805Z,-0.76
2019-02-25T05:30:37.521Z,-0.76
2019-02-25T05:33:07.623Z,-1.02
2019-02-25T05:35:37.309Z,-1.02
2019-02-25T05:38:07.024Z,-1.01
2019-02-25T05:40:36.794Z,-1.08
2019-02-25T05:43:06.565Z,-0.97
2019-02-25T05:45:36.303Z,-0.97
2019-02-25T05:48:06.049Z,-0.92
2019-02-25T05:50:35.836Z,-1.02
2019-02-25T05:53:06.025Z,-1.03
2019-02-25T05:55:36.096Z,-1.03
2019-02-25T05:58:06.158Z,-1.09
2019-02-25T06:00:36.448Z,-1.10
2019-02-25T06:03:06.196Z,-1.11
2019-02-25T06:05:35.888Z,-1.16
2019-02-25T06:08:05.633Z,-1.19
2019-02-25T06:10:35.399Z,-1.19
2019-02-25T06:13:05.208Z,-1.17
2019-02-25T06:15:34.825Z,-1.14
2019-02-25T06:18:04.862Z,-1.11
2019-02-25T06:20:34.544Z,-1.02
2019-02-25T06:23:04.384Z,-1.02
2019-02-25T06:25:34.083Z,-0.96
2019-02-25T06:28:03.765Z,-0.84
2019-02-25T06:30:33.519Z,-0.84
2019-02-25T06:33:03.280Z,-0.74
2019-02-25T06:35:32.940Z,-0.65
2019-02-25T06:38:02.632Z,-0.60
2019-02-25T06:40:32.465Z,-0.58
2019-02-25T06:43:02.234Z,-0.38
2019-02-25T06:45:33.165Z,-0.27
2019-02-25T06:48:02.841Z,-0.13
2019-02-25T06:50:32.590Z,0.10
2019-02-25T06:53:02.262Z,0.13
2019-02-25T06:55:32.248Z,0.18
2019-02-25T06:58:02.008Z,0.27
2019-02-25T07:00:32.025Z,0.38
2019-02-25T07:03:01.720Z,0.37
2019-02-25T07:05:47.932Z,0.51
2019-02-25T07:08:40.092Z,0.68
2019-02-25T07:11:33.948Z,0.68
2019-02-25T07:14:13.918Z,0.75
2019-02-25T07:17:03.716Z,0.91
2019-02-25T07:19:54.187Z,1.00
2019-02-25T07:22:41.626Z,1.09
2019-02-25T07:25:39.955Z,1.35
2019-02-25T07:28:33.450Z,1.49
2019-02-25T07:31:16.588Z,1.76
2019-02-25T07:34:02.147Z,1.89
2019-02-25T07:36:41.544Z,2.21
2019-02-25T07:39:25.841Z,2.18
2019-02-25T07:42:12.963Z,2.23
2019-02-25T07:45:17.087Z,2.26
2019-02-25T07:47:59.193Z,2.23
2019-02-25T07:50:51.444Z,2.52
2019-02-25T07:53:49.133Z,2.57
2019-02-25T07:56:28.725Z,2.46
2019-02-25T07:59:16.252Z,2.58
2019-02-25T08:01:54.003Z,2.54
2019-02-25T08:04:32.227Z,2.54
2019-02-25T08:07:20.902Z,2.68
2019-02-25T08:09:58.435Z,2.77
2019-02-25T08:12:36.710Z,2.83
2019-02-25T08:15:12.581Z,3.19
2019-02-25T08:18:00.205Z,3.32
2019-02-25T08:20:46.531Z,3.33
2019-02-25T08:23:44.340Z,3.39
2019-02-25T08:26:21.256Z,3.72
2019-02-25T08:29:21.741Z,3.90
2019-02-25T08:32:07.687Z,3.79
2019-02-25T08:34:55.528Z,3.83
2019-02-25T08:37:52.034Z,4.00
2019-02-25T08:41:20.410Z,3.97
2019-02-25T08:44:01.623Z,4.19
2019-02-25T08:46:48.323Z,4.43
2019-02-25T08:49:22.025Z,4.56
2019-02-25T08:51:51.777Z,4.72
2019-02-25T08:54:21.617Z,4.56
2019-02-25T08:56:51.365Z,4.57
2019-02-25T08:59:21.465Z,4.57
2019-02-25T09:01:51.234Z,4.52
2019-02-25T09:04:20.909Z,4.59
2019-02-25T09:06:50.656Z,4.74
2019-02-25T09:09:20.744Z,5.13
2019-02-25T09:11:50.405Z,5.43
2019-02-25T09:14:20.162Z,5.48
2019-02-25T09:16:49.920Z,5.43
2019-02-25T09:19:19.584Z,5.61
2019-02-25T09:21:49.267Z,5.70
2019-02-25T09:24:19.038Z,5.83
2019-02-25T09:26:48.784Z,5.92
2019-02-25T09:29:18.566Z,5.85
2019-02-25T09:31:48.620Z,5.91
2019-02-25T09:34:18.376Z,6.19
2019-02-25T09:36:48.201Z,6.11
2019-02-25T09:39:17.956Z,6.23
2019-02-25T09:41:47.714Z,6.27
2019-02-25T09:44:17.454Z,6.50
2019-02-25T09:46:47.135Z,6.68
2019-02-25T09:49:17.210Z,6.68
2019-02-25T09:51:46.965Z,6.79
2019-02-25T09:54:16.717Z,6.80
2019-02-25T09:56:46.391Z,6.94
2019-02-25T09:59:16.057Z,6.98
2019-02-25T10:01:45.816Z,7.13
2019-02-25T10:04:15.485Z,7.22
2019-02-25T10:06:45.247Z,7.38
2019-02-25T10:09:14.920Z,7.40
2019-02-25T10:11:44.748Z,7.51
2019-02-25T10:14:14.488Z,7.81
2019-02-25T10:16:44.235Z,7.76
2019-02-25T10:19:13.923Z,7.85
2019-02-25T10:21:43.696Z,8.34
2019-02-25T10:24:13.464Z,8.52
2019-02-25T10:26:43.254Z,8.47
2019-02-25T10:29:13.039Z,8.87
2019-02-25T10:31:43.791Z,9.25
2019-02-25T10:34:13.605Z,9.45
2019-02-25T10:36:44.022Z,9.84
2019-02-25T10:39:15.435Z,10.91
2019-02-25T10:41:46.080Z,12.29
2019-02-25T10:44:16.045Z,13.47
2019-02-25T10:46:47.018Z,14.56
2019-02-25T10:49:17.210Z,15.41
2019-02-25T10:51:46.961Z,16.46
2019-02-25T10:54:17.009Z,17.82
2019-02-25T10:56:58.647Z,18.55
2019-02-25T10:59:29.916Z,19.01
2019-02-25T11:01:59.762Z,19.86
2019-02-25T11:04:29.613Z,20.86
2019-02-25T11:07:00.806Z,20.77
2019-02-25T11:09:48.353Z,20.72
2019-02-25T11:12:30.090Z,20.67
2019-02-25T11:15:01.555Z,21.71
2019-02-25T11:17:32.182Z,21.89
2019-02-25T11:20:03.711Z,22.59
2019-02-25T11:22:33.522Z,22.94
2019-02-25T11:25:03.331Z,23.41
2019-02-25T11:27:33.628Z,23.73
2019-02-25T11:30:05.391Z,23.84
2019-02-25T11:32:35.310Z,24.45
2019-02-25T11:35:06.378Z,24.50
2019-02-25T11:37:37.042Z,25.34
2019-02-25T11:40:07.952Z,25.82
2019-02-25T11:42:37.926Z,26.97
2019-02-25T11:45:09.720Z,26.02
2019-02-25T11:47:39.462Z,25.67
2019-02-25T11:50:11.402Z,26.26
2019-02-25T11:52:41.136Z,26.90
2019-02-25T11:55:11.246Z,28.17
2019-02-25T11:57:42.330Z,27.81
2019-02-25T12:00:15.888Z,27.81
2019-02-25T12:02:45.768Z,27.82
2019-02-25T12:05:16.759Z,28.66
2019-02-25T12:07:47.067Z,28.11
2019-02-25T12:10:16.860Z,28.95
2019-02-25T12:12:46.685Z,30.18
2019-02-25T12:15:17.003Z,31.05
2019-02-25T12:17:46.678Z,31.53
2019-02-25T12:20:16.463Z,33.80
2019-02-25T12:22:46.269Z,32.57
2019-02-25T12:25:16.041Z,31.97
2019-02-25T12:27:45.854Z,33.40
2019-02-25T12:30:17.416Z,32.97
2019-02-25T12:32:47.184Z,33.17
2019-02-25T12:35:16.939Z,33.38
2019-02-25T12:37:46.712Z,32.79
2019-02-25T12:40:17.836Z,34.12
2019-02-25T12:42:47.611Z,34.95
2019-02-25T12:45:17.403Z,33.50
2019-02-25T12:47:47.078Z,33.56
2019-02-25T12:50:16.852Z,33.93
2019-02-25T12:52:46.544Z,33.93
2019-02-25T12:55:16.393Z,34.72
2019-02-25T12:57:47.347Z,34.96
2019-02-25T13:00:17.206Z,34.48
2019-02-25T13:02:47.273Z,34.48
2019-02-25T13:05:17.017Z,35.03
2019-02-25T13:07:46.764Z,36.09
